TRM Airport (Jacqueline Cochran Rgnl) Information

FAA: TRM - ICAO: KTRM

TRM Airport Location

State California
County Riverside
City Palm Springs
TRM Airport is 20 miles southeast of Palm Springs, CA.
Latitude 33-37-36.0140N
Longitude 116-09-34.7560W
Elevation -114ft

KTRM Airport METARs

METAR KTRM 200352Z AUTO 00000KT 10SM CLR 14/08 A2995 RMK AO2 SLP142 T01390078
Altimeter 29.95"
Temperature 13.9°C (57.0°F)
Wind 0° at 0KT
Clouds Skies are clear.
Visibility 10.0mi
Time observed: 2021-10-20T03:52:00Z

TRM Airport Details

Status Operational
Activation N/A
Ownership Public
Usage Public
Chart LOS ANGELES
ATC on-site No
Beacon schedule sunset-sunrise
Beacon color clear green

TRM Airport Contacts

Owner COUNTY OF RIVERSIDE
Owner address 3403 10TH STREET, SUITE 400, RIVERSIDE, CA 92501
Owner phone 951-955-8916
Manager ANN GOODWYN
Manager address 79-880 AVE. 42, BERMUDA DUNES, CA 92203
Manager phone 760-345-2558

TRM Airport (Jacqueline Cochran Rgnl) Radio Frequencies

TRM (Airport) Radio Frequencies

UNICOM 123
Common traffic advisory frequency (CTAF) 123